Time;durP1;ratioP1;P1;durP2;ratioP2;P2;SDS_P1;SDS_P2;PMS_P1;PMS_P2;Temp;Humidity;BMP_temperature;BMP_pressure;BME280_temperature;BME280_humidity;BME280_pressure;Samples;Min_cycle;Max_cycle;Signal;HPM_P1;HPM_P2
2024/01/14 00:01:39;;;;;;;0.20;0.20;;;4.60;99.90;;;;;;5056025;27;20118;-81
2024/01/14 00:04:08;;;;;;;0.10;0.10;;;4.70;99.90;;;;;;5076607;28;20279;-80
2024/01/14 00:06:35;;;;;;;0.20;0.20;;;4.70;99.90;;;;;;5055127;28;20115;-81
2024/01/14 00:09:04;;;;;;;0.15;0.15;;;4.80;99.90;;;;;;5078182;28;20125;-79
2024/01/14 00:11:31;;;;;;;0.20;0.20;;;4.80;99.90;;;;;;5069882;28;20113;-80
2024/01/14 00:14:00;;;;;;;0.20;0.20;;;4.80;99.90;;;;;;5054991;28;20230;-81
2024/01/14 00:16:32;;;;;;;0.20;0.20;;;4.80;99.90;;;;;;5049887;28;20581;-79
2024/01/14 00:19:09;;;;;;;0.20;0.20;;;4.90;99.90;;;;;;5056725;28;20610;-81
2024/01/14 00:21:37;;;;;;;0.20;0.20;;;4.90;99.90;;;;;;5085968;27;20118;-81
2024/01/14 00:24:05;;;;;;;0.10;0.10;;;4.90;99.90;;;;;;5056399;28;20128;-81
2024/01/14 00:26:33;;;;;;;0.10;0.10;;;5.00;99.90;;;;;;5055550;28;20207;-80
2024/01/14 00:29:01;;;;;;;0.20;0.20;;;4.90;99.90;;;;;;5035322;28;20124;-79
2024/01/14 00:31:28;;;;;;;0.10;0.10;;;5.10;99.90;;;;;;5041554;28;20584;-80
2024/01/14 00:33:56;;;;;;;0.20;0.20;;;5.10;99.90;;;;;;5086880;27;20981;-80
2024/01/14 00:36:23;;;;;;;0.10;0.10;;;5.10;99.90;;;;;;5038073;28;20235;-80
2024/01/14 00:38:51;;;;;;;0.17;0.17;;;5.10;99.90;;;;;;5046002;28;20201;-81
2024/01/14 00:41:20;;;;;;;0.10;0.10;;;5.10;99.90;;;;;;5053546;28;20111;-80
2024/01/14 00:43:48;;;;;;;0.20;0.20;;;5.10;99.90;;;;;;5065687;28;20122;-80
2024/01/14 00:46:15;;;;;;;0.17;0.17;;;5.20;99.90;;;;;;5059706;28;20157;-80
2024/01/14 00:48:42;;;;;;;0.10;0.10;;;5.20;99.90;;;;;;5055859;28;20120;-80
2024/01/14 00:51:09;;;;;;;0.10;0.10;;;5.20;99.90;;;;;;5027931;28;20200;-80
2024/01/14 00:53:37;;;;;;;0.10;0.10;;;5.10;99.90;;;;;;5054878;28;20129;-80
2024/01/14 00:56:04;;;;;;;0.10;0.10;;;5.20;99.90;;;;;;5072391;28;20116;-79
2024/01/14 00:58:31;;;;;;;0.10;0.10;;;5.30;99.90;;;;;;5073124;28;20129;-81
2024/01/14 01:00:58;;;;;;;0.15;0.15;;;5.40;99.90;;;;;;5054404;28;20202;-80
2024/01/14 01:03:27;;;;;;;0.10;0.10;;;5.30;99.90;;;;;;5069291;28;20124;-80
2024/01/14 01:05:54;;;;;;;0.20;0.20;;;5.20;99.90;;;;;;5071642;28;20594;-79
2024/01/14 01:08:22;;;;;;;0.10;0.10;;;5.20;99.90;;;;;;5071362;28;20167;-80
2024/01/14 01:10:49;;;;;;;0.20;0.20;;;5.30;99.90;;;;;;5052285;28;21221;-81
2024/01/14 01:13:19;;;;;;;0.20;0.20;;;5.40;99.90;;;;;;5069595;28;20977;-81
2024/01/14 01:15:47;;;;;;;0.15;0.15;;;5.30;99.90;;;;;;5075018;28;20112;-79
2024/01/14 01:18:14;;;;;;;0.20;0.20;;;5.10;99.90;;;;;;5069034;28;20124;-79
2024/01/14 01:20:41;;;;;;;0.17;0.17;;;5.10;99.90;;;;;;5070644;28;20204;-79
2024/01/14 01:23:09;;;;;;;0.20;0.20;;;5.00;99.90;;;;;;5070012;28;20131;-79
2024/01/14 01:25:36;;;;;;;0.20;0.20;;;5.20;99.90;;;;;;5087586;27;20490;-80
2024/01/14 01:28:04;;;;;;;0.10;0.10;;;5.30;99.90;;;;;;5071191;28;20124;-79
2024/01/14 01:30:31;;;;;;;0.10;0.10;;;5.40;99.90;;;;;;5057773;28;20125;-78
2024/01/14 01:32:59;;;;;;;0.20;0.20;;;5.50;99.90;;;;;;5072203;28;20116;-79
2024/01/14 01:35:27;;;;;;;0.10;0.10;;;5.50;99.90;;;;;;5054590;28;20173;-78
2024/01/14 01:37:54;;;;;;;0.20;0.20;;;5.40;99.90;;;;;;5070328;28;20190;-79
2024/01/14 01:40:21;;;;;;;0.20;0.20;;;5.50;99.90;;;;;;5088968;27;20558;-78
2024/01/14 01:42:50;;;;;;;0.10;0.10;;;5.50;99.90;;;;;;5058456;28;20116;-79
2024/01/14 01:45:17;;;;;;;0.20;0.20;;;5.40;99.90;;;;;;5071869;28;20650;-79
2024/01/14 01:47:45;;;;;;;0.10;0.10;;;5.50;99.90;;;;;;5056722;28;20582;-78
2024/01/14 01:50:13;;;;;;;0.20;0.20;;;5.50;99.90;;;;;;5039721;28;20117;-79
2024/01/14 01:52:41;;;;;;;0.20;0.20;;;5.50;99.90;;;;;;5072817;28;20574;-78
2024/01/14 01:55:10;;;;;;;0.20;0.20;;;5.40;99.90;;;;;;5041299;28;20127;-79
2024/01/14 01:57:38;;;;;;;0.20;0.20;;;5.40;99.90;;;;;;5058964;28;20124;-78
2024/01/14 02:00:11;;;;;;;0.10;0.10;;;5.50;99.90;;;;;;5051525;28;21087;-78
2024/01/14 02:02:43;;;;;;;0.10;0.10;;;5.50;99.90;;;;;;5070214;28;21120;-79
2024/01/14 02:05:11;;;;;;;0.10;0.10;;;5.20;99.90;;;;;;5055396;28;20117;-78
2024/01/14 02:07:39;;;;;;;0.20;0.20;;;5.00;99.90;;;;;;5037535;28;20112;-79
2024/01/14 02:10:06;;;;;;;0.15;0.15;;;5.10;99.90;;;;;;5076227;28;20584;-78
2024/01/14 02:12:33;;;;;;;0.20;0.20;;;5.00;99.90;;;;;;5077058;28;20109;-79
2024/01/14 02:15:01;;;;;;;0.20;0.20;;;4.80;99.90;;;;;;5073011;28;20123;-78
2024/01/14 02:17:28;;;;;;;0.20;0.20;;;4.70;99.90;;;;;;5040785;28;20124;-78
2024/01/14 02:19:56;;;;;;;0.15;0.15;;;4.70;99.90;;;;;;5071016;28;21230;-78
2024/01/14 02:22:31;;;;;;;0.20;0.20;;;4.80;99.90;;;;;;5091267;27;20212;-79
2024/01/14 02:24:59;;;;;;;0.20;0.20;;;4.80;99.90;;;;;;5089645;27;20124;-78
2024/01/14 02:27:26;;;;;;;0.13;0.13;;;4.90;99.90;;;;;;5085299;28;20109;-78
2024/01/14 02:29:55;;;;;;;0.20;0.20;;;4.80;99.90;;;;;;5022475;28;20178;-77
2024/01/14 02:32:23;;;;;;;0.20;0.20;;;4.80;99.90;;;;;;5055892;28;20113;-80
2024/01/14 02:34:51;;;;;;;0.10;0.10;;;4.70;99.90;;;;;;5071288;28;20487;-80
2024/01/14 02:37:18;;;;;;;0.10;0.10;;;4.60;99.90;;;;;;5052404;28;20255;-78
2024/01/14 02:39:47;;;;;;;0.10;0.10;;;4.80;99.90;;;;;;5056830;28;20871;-80
2024/01/14 02:42:14;;;;;;;0.20;0.20;;;4.60;99.90;;;;;;5036177;28;20785;-80
2024/01/14 02:44:41;;;;;;;0.10;0.10;;;4.80;99.90;;;;;;5051569;28;20128;-80
2024/01/14 02:47:08;;;;;;;0.10;0.10;;;4.60;99.90;;;;;;5071331;28;22165;-80
2024/01/14 02:49:36;;;;;;;0.13;0.13;;;4.40;99.90;;;;;;5069143;28;20584;-80
2024/01/14 02:52:03;;;;;;;0.10;0.10;;;4.40;99.90;;;;;;5069811;28;20584;-80
2024/01/14 02:54:31;;;;;;;0.17;0.17;;;4.50;99.90;;;;;;5052715;28;20126;-80
2024/01/14 02:56:58;;;;;;;0.10;0.10;;;4.50;99.90;;;;;;5048755;28;20123;-79
2024/01/14 02:59:26;;;;;;;0.10;0.10;;;4.40;99.90;;;;;;5053588;28;20113;-80
2024/01/14 03:01:53;;;;;;;0.13;0.13;;;4.20;99.90;;;;;;5055251;28;20137;-79
2024/01/14 03:04:21;;;;;;;0.20;0.20;;;4.10;99.90;;;;;;5089976;27;20259;-80
2024/01/14 03:06:48;;;;;;;0.20;0.20;;;4.20;99.90;;;;;;5054994;28;22072;-80
2024/01/14 03:09:16;;;;;;;0.10;0.10;;;4.40;99.90;;;;;;5020686;28;20125;-80
2024/01/14 03:11:45;;;;;;;0.10;0.10;;;4.50;99.90;;;;;;5054843;28;20585;-80
2024/01/14 03:14:12;;;;;;;0.20;0.20;;;4.60;99.90;;;;;;5053340;28;20112;-80
2024/01/14 03:16:39;;;;;;;0.20;0.20;;;4.60;99.90;;;;;;5071792;28;20119;-80
2024/01/14 03:19:07;;;;;;;0.10;0.10;;;4.50;99.90;;;;;;5049214;28;20121;-80
2024/01/14 03:21:34;;;;;;;0.10;0.10;;;4.60;99.90;;;;;;5055250;28;20114;-80
2024/01/14 03:24:01;;;;;;;0.20;0.20;;;4.60;99.90;;;;;;5053413;28;20123;-76
2024/01/14 03:26:31;;;;;;;0.20;0.20;;;4.90;99.90;;;;;;5076202;28;20116;-80
2024/01/14 03:28:59;;;;;;;0.20;0.20;;;5.10;99.90;;;;;;5057341;28;20183;-80
2024/01/14 03:31:26;;;;;;;0.20;0.20;;;5.30;99.90;;;;;;5063809;28;20109;-80
2024/01/14 03:33:53;;;;;;;0.20;0.20;;;5.20;99.90;;;;;;5087168;27;20619;-80
2024/01/14 03:36:21;;;;;;;0.20;0.20;;;5.10;99.90;;;;;;5069123;28;20120;-80
2024/01/14 03:38:48;;;;;;;0.20;0.20;;;4.80;99.90;;;;;;5071972;28;20116;-79
2024/01/14 03:41:15;;;;;;;0.20;0.20;;;4.70;99.90;;;;;;5053458;28;20121;-79
2024/01/14 03:43:43;;;;;;;0.20;0.20;;;4.70;99.90;;;;;;5072640;28;20163;-80
2024/01/14 03:46:10;;;;;;;0.13;0.13;;;4.60;99.90;;;;;;5060222;28;20174;-80
2024/01/14 03:48:38;;;;;;;0.10;0.10;;;4.50;99.90;;;;;;5055060;28;20116;-81
2024/01/14 03:51:05;;;;;;;0.20;0.20;;;4.60;99.90;;;;;;5061224;28;20147;-81
2024/01/14 03:53:33;;;;;;;0.10;0.10;;;4.60;99.90;;;;;;5039821;28;20114;-80
2024/01/14 03:56:02;;;;;;;0.20;0.20;;;4.40;99.90;;;;;;5039139;28;20120;-80
2024/01/14 03:58:29;;;;;;;0.10;0.10;;;4.30;99.90;;;;;;5054756;28;20848;-80
2024/01/14 04:00:57;;;;;;;0.20;0.20;;;4.30;99.90;;;;;;5053888;28;20570;-80
2024/01/14 04:03:24;;;;;;;0.20;0.20;;;4.50;99.90;;;;;;5069492;28;28212;-80
2024/01/14 04:05:51;;;;;;;0.10;0.10;;;4.40;99.90;;;;;;5056926;28;20112;-80
2024/01/14 04:08:19;;;;;;;0.20;0.20;;;4.40;99.90;;;;;;5087766;27;20116;-80
2024/01/14 04:10:46;;;;;;;0.20;0.20;;;4.30;99.90;;;;;;5060596;28;20569;-80
2024/01/14 04:13:13;;;;;;;0.17;0.17;;;4.30;99.90;;;;;;5069896;28;20117;-81
2024/01/14 04:15:40;;;;;;;0.10;0.10;;;4.50;99.90;;;;;;5027202;28;20171;-80
2024/01/14 04:18:08;;;;;;;0.20;0.20;;;4.40;99.90;;;;;;5042101;28;20204;-80
2024/01/14 04:20:35;;;;;;;0.20;0.20;;;4.30;99.90;;;;;;5075116;28;20121;-81
2024/01/14 04:23:02;;;;;;;0.20;0.20;;;4.40;99.90;;;;;;5069252;27;22779;-80
2024/01/14 04:25:29;;;;;;;0.10;0.10;;;4.60;99.90;;;;;;5054082;28;21104;-81
2024/01/14 04:27:59;;;;;;;0.20;0.20;;;4.40;99.90;;;;;;5072819;28;20203;-81
2024/01/14 04:30:26;;;;;;;0.10;0.10;;;4.40;99.90;;;;;;5053504;28;20118;-81
2024/01/14 04:32:53;;;;;;;0.10;0.10;;;4.40;99.90;;;;;;5037069;28;20230;-81
2024/01/14 04:35:20;;;;;;;0.10;0.10;;;4.50;99.90;;;;;;5054762;28;20210;-81
2024/01/14 04:37:48;;;;;;;0.20;0.20;;;4.60;99.90;;;;;;5052940;28;20113;-81
2024/01/14 04:40:15;;;;;;;0.20;0.20;;;4.40;99.90;;;;;;5053887;28;20123;-81
2024/01/14 04:42:43;;;;;;;0.20;0.20;;;4.40;99.90;;;;;;5073392;28;20119;-81
2024/01/14 04:45:10;;;;;;;0.10;0.10;;;4.30;99.90;;;;;;5077032;28;20112;-80
2024/01/14 04:47:37;;;;;;;0.20;0.20;;;4.20;99.90;;;;;;5037891;28;20195;-80
2024/01/14 04:50:05;;;;;;;0.10;0.10;;;4.10;99.90;;;;;;5054810;28;20144;-81
2024/01/14 04:52:33;;;;;;;0.20;0.20;;;4.00;99.90;;;;;;5088301;27;20100;-81
2024/01/14 04:55:00;;;;;;;0.10;0.10;;;4.00;99.90;;;;;;5052666;28;20123;-80
2024/01/14 04:57:27;;;;;;;0.20;0.20;;;3.90;99.90;;;;;;5055558;28;20580;-81
2024/01/14 04:59:54;;;;;;;0.20;0.20;;;4.00;99.90;;;;;;5055078;28;20958;-80
2024/01/14 05:02:21;;;;;;;0.20;0.20;;;4.00;99.90;;;;;;5074273;28;20243;-80
2024/01/14 05:04:48;;;;;;;0.10;0.10;;;3.80;99.90;;;;;;5085807;27;20658;-80
2024/01/14 05:07:15;;;;;;;0.15;0.15;;;3.90;99.90;;;;;;5053493;28;20172;-80
2024/01/14 05:09:42;;;;;;;0.20;0.20;;;4.10;99.90;;;;;;5071650;28;20146;-79
2024/01/14 05:12:09;;;;;;;0.20;0.20;;;4.00;99.90;;;;;;5033392;28;20209;-80
2024/01/14 05:14:36;;;;;;;0.20;0.20;;;3.90;99.90;;;;;;5071432;28;20269;-79
2024/01/14 05:17:04;;;;;;;0.17;0.17;;;3.70;99.90;;;;;;5050857;28;20117;-80
2024/01/14 05:19:31;;;;;;;0.20;0.20;;;3.50;99.90;;;;;;5054812;28;20125;-80
2024/01/14 05:21:59;;;;;;;0.13;0.13;;;3.50;99.90;;;;;;5069427;28;20677;-80
2024/01/14 05:24:26;;;;;;;0.20;0.20;;;3.40;99.90;;;;;;5071352;28;20120;-80
2024/01/14 05:26:53;;;;;;;0.20;0.20;;;3.40;99.90;;;;;;5087286;27;20159;-79
2024/01/14 05:29:20;;;;;;;0.20;0.20;;;3.30;99.90;;;;;;5069748;28;20805;-80
2024/01/14 05:31:47;;;;;;;0.10;0.10;;;3.50;99.90;;;;;;5057543;28;20118;-80
2024/01/14 05:34:15;;;;;;;0.20;0.20;;;3.40;99.90;;;;;;5040921;28;20131;-80
2024/01/14 05:36:42;;;;;;;0.15;0.15;;;3.30;99.90;;;;;;5088187;27;20117;-79
2024/01/14 05:39:10;;;;;;;0.20;0.20;;;3.20;99.90;;;;;;5058705;28;20167;-79
2024/01/14 05:41:38;;;;;;;0.10;0.10;;;3.10;99.90;;;;;;5070916;28;20657;-80
2024/01/14 05:44:06;;;;;;;0.10;0.10;;;3.00;99.90;;;;;;5055659;28;20125;-80
2024/01/14 05:46:33;;;;;;;0.20;0.20;;;3.00;99.90;;;;;;5055402;28;20585;-80
2024/01/14 05:49:00;;;;;;;0.20;0.20;;;2.90;99.90;;;;;;5037997;28;20117;-79
2024/01/14 05:51:28;;;;;;;0.20;0.20;;;3.10;99.90;;;;;;5052069;28;20133;-80
2024/01/14 05:53:55;;;;;;;0.20;0.20;;;3.20;99.90;;;;;;5085894;27;26905;-80
2024/01/14 05:56:26;;;;;;;0.30;0.30;;;3.30;99.90;;;;;;5055605;28;20112;-80
2024/01/14 05:58:54;;;;;;;0.10;0.10;;;3.20;99.90;;;;;;5070123;28;21131;-79
2024/01/14 06:01:22;;;;;;;0.10;0.10;;;3.30;99.90;;;;;;5069874;28;20144;-80
2024/01/14 06:03:49;;;;;;;0.10;0.10;;;3.30;99.90;;;;;;5053921;28;20109;-79
2024/01/14 06:06:16;;;;;;;0.20;0.20;;;3.40;99.90;;;;;;5070042;28;20601;-80
2024/01/14 06:08:44;;;;;;;0.20;0.20;;;3.30;99.90;;;;;;5042772;28;20112;-80
2024/01/14 06:11:12;;;;;;;0.20;0.20;;;3.40;99.90;;;;;;5053370;28;22300;-80
2024/01/14 06:13:41;;;;;;;0.20;0.20;;;3.60;99.90;;;;;;5070367;28;20109;-80
2024/01/14 06:16:09;;;;;;;0.10;0.10;;;3.50;99.90;;;;;;5085151;27;20472;-81
2024/01/14 06:18:36;;;;;;;0.10;0.10;;;3.70;99.90;;;;;;5053358;28;20246;-80
2024/01/14 06:21:04;;;;;;;0.10;0.10;;;3.70;99.90;;;;;;5051072;28;20164;-80
2024/01/14 06:23:31;;;;;;;0.20;0.20;;;3.60;99.90;;;;;;5068249;28;20958;-80
2024/01/14 06:25:58;;;;;;;0.20;0.20;;;3.70;99.90;;;;;;5067340;28;20120;-80
2024/01/14 06:28:26;;;;;;;0.20;0.20;;;3.60;99.90;;;;;;5068458;28;20109;-80
2024/01/14 06:30:53;;;;;;;0.10;0.10;;;3.50;99.90;;;;;;5035543;28;20529;-80
2024/01/14 06:33:20;;;;;;;0.20;0.20;;;3.40;99.90;;;;;;5055221;28;20194;-80
2024/01/14 06:35:48;;;;;;;0.20;0.20;;;3.20;99.90;;;;;;5052740;28;20870;-80
2024/01/14 06:38:15;;;;;;;0.10;0.10;;;3.10;99.90;;;;;;5087081;27;20120;-79
2024/01/14 06:40:42;;;;;;;0.10;0.10;;;3.20;99.90;;;;;;5054387;28;20121;-79
2024/01/14 06:43:12;;;;;;;0.10;0.10;;;3.30;99.90;;;;;;5021848;28;20124;-79
2024/01/14 06:45:40;;;;;;;0.20;0.20;;;3.40;99.90;;;;;;5039146;28;20116;-80
2024/01/14 06:48:07;;;;;;;0.10;0.10;;;3.30;99.90;;;;;;5069896;28;20145;-80
2024/01/14 06:50:35;;;;;;;0.20;0.20;;;3.20;99.90;;;;;;5049718;28;20120;-79
2024/01/14 06:53:03;;;;;;;0.10;0.10;;;3.20;99.90;;;;;;5068141;28;20488;-80
2024/01/14 06:55:30;;;;;;;0.10;0.10;;;3.20;99.90;;;;;;5055728;28;20160;-80
2024/01/14 06:57:57;;;;;;;0.20;0.20;;;3.20;99.90;;;;;;5070587;28;20583;-79
2024/01/14 07:00:24;;;;;;;0.10;0.10;;;3.30;99.90;;;;;;5037500;28;21235;-79
2024/01/14 07:02:51;;;;;;;0.20;0.20;;;3.30;99.90;;;;;;5085330;27;20128;-79
2024/01/14 07:05:19;;;;;;;0.20;0.20;;;3.50;99.90;;;;;;5086316;27;20647;-79
2024/01/14 07:07:46;;;;;;;0.10;0.10;;;3.30;99.90;;;;;;5051365;28;20110;-80
2024/01/14 07:10:15;;;;;;;0.20;0.20;;;3.30;99.90;;;;;;5055362;28;20125;-81
2024/01/14 07:12:42;;;;;;;0.10;0.10;;;3.30;99.90;;;;;;5071735;28;20597;-81
2024/01/14 07:15:10;;;;;;;0.17;0.17;;;3.20;99.90;;;;;;5039270;27;20225;-80
2024/01/14 07:17:38;;;;;;;0.10;0.10;;;3.30;99.90;;;;;;4996657;28;20122;-80
2024/01/14 07:20:18;;;;;;;0.20;0.20;;;3.30;99.90;;;;;;5033608;28;20124;-80
2024/01/14 07:22:46;;;;;;;0.20;0.20;;;3.30;99.90;;;;;;5020653;28;20104;-80
2024/01/14 07:25:13;;;;;;;0.20;0.20;;;3.40;99.90;;;;;;5065047;28;20120;-80
2024/01/14 07:27:40;;;;;;;0.15;0.15;;;3.70;99.90;;;;;;5060871;28;20131;-79
2024/01/14 07:30:07;;;;;;;0.20;0.20;;;3.60;99.90;;;;;;5069364;28;20472;-81
2024/01/14 07:32:34;;;;;;;0.10;0.10;;;3.60;99.90;;;;;;5036158;28;20889;-80
2024/01/14 07:35:02;;;;;;;0.20;0.20;;;3.90;99.90;;;;;;5067848;28;20116;-81
2024/01/14 07:37:33;;;;;;;0.13;0.13;;;4.00;99.90;;;;;;5035634;28;20125;-80
2024/01/14 07:40:01;;;;;;;0.20;0.20;;;4.10;99.90;;;;;;5068961;28;20117;-80
2024/01/14 07:42:28;;;;;;;0.20;0.20;;;4.20;99.90;;;;;;5067990;28;20121;-81
2024/01/14 07:44:55;;;;;;;0.20;0.20;;;4.40;99.90;;;;;;5054538;28;20120;-80
2024/01/14 07:47:23;;;;;;;0.20;0.20;;;4.70;99.90;;;;;;5070451;28;20124;-81
2024/01/14 07:49:50;;;;;;;0.20;0.20;;;4.60;99.90;;;;;;5088206;27;20125;-81
2024/01/14 07:52:18;;;;;;;0.10;0.10;;;4.70;99.90;;;;;;5046163;28;20113;-80
2024/01/14 07:54:45;;;;;;;0.20;0.20;;;4.40;99.90;;;;;;5091280;27;20120;-80
2024/01/14 07:57:12;;;;;;;0.20;0.20;;;4.20;99.90;;;;;;5038632;28;20130;-80
2024/01/14 07:59:39;;;;;;;0.15;0.15;;;4.10;99.90;;;;;;5055870;28;20123;-81
2024/01/14 08:02:07;;;;;;;0.20;0.20;;;3.60;99.90;;;;;;5053322;28;20565;-80
2024/01/14 08:04:34;;;;;;;0.20;0.20;;;3.50;99.90;;;;;;5037530;28;20743;-80
2024/01/14 08:07:03;;;;;;;0.20;0.20;;;3.40;99.90;;;;;;5038564;28;20128;-80
2024/01/14 08:09:30;;;;;;;0.20;0.20;;;3.30;99.90;;;;;;5055231;28;20148;-80
2024/01/14 08:11:58;;;;;;;0.10;0.10;;;3.30;99.90;;;;;;5038185;28;20170;-80
2024/01/14 08:14:25;;;;;;;0.10;0.10;;;3.30;99.90;;;;;;5054569;28;20125;-80
2024/01/14 08:16:52;;;;;;;0.20;0.20;;;3.40;99.90;;;;;;5057566;28;20108;-79
2024/01/14 08:19:20;;;;;;;0.20;0.20;;;3.70;99.90;;;;;;5056501;28;20125;-81
2024/01/14 08:21:47;;;;;;;0.10;0.10;;;3.70;99.90;;;;;;5061174;28;20180;-80
2024/01/14 08:24:14;;;;;;;0.17;0.17;;;3.80;99.90;;;;;;5056563;28;20164;-80
2024/01/14 08:26:45;;;;;;;0.10;0.10;;;3.60;99.90;;;;;;5089707;27;20124;-80
2024/01/14 08:29:14;;;;;;;0.20;0.20;;;3.70;99.90;;;;;;5088776;27;20117;-81
2024/01/14 08:31:48;;;;;;;0.13;0.13;;;3.60;99.90;;;;;;5045966;28;20124;-80
2024/01/14 08:34:16;;;;;;;0.20;0.20;;;3.70;99.90;;;;;;5071726;28;20628;-80
2024/01/14 08:36:44;;;;;;;0.20;0.20;;;3.70;99.90;;;;;;5074445;28;20634;-81
2024/01/14 08:39:11;;;;;;;0.10;0.10;;;3.60;99.90;;;;;;5076972;28;20116;-82
2024/01/14 08:41:38;;;;;;;0.10;0.10;;;3.70;99.90;;;;;;5088511;27;20113;-80
2024/01/14 08:44:06;;;;;;;0.20;0.20;;;3.80;99.90;;;;;;5056865;28;20143;-81
2024/01/14 08:46:38;;;;;;;0.20;0.20;;;3.90;99.90;;;;;;5044012;28;20149;-81
2024/01/14 08:49:05;;;;;;;0.10;0.10;;;3.80;99.90;;;;;;5037780;28;20190;-81
2024/01/14 08:51:32;;;;;;;0.20;0.20;;;3.80;99.90;;;;;;5055671;28;20113;-81
2024/01/14 08:54:01;;;;;;;0.10;0.10;;;3.80;99.90;;;;;;5060263;28;20984;-80
2024/01/14 08:56:28;;;;;;;0.10;0.10;;;3.70;99.90;;;;;;5071730;28;20572;-80
2024/01/14 08:58:56;;;;;;;0.10;0.10;;;3.80;99.90;;;;;;5054377;28;20116;-80
2024/01/14 09:01:26;;;;;;;0.20;0.20;;;3.80;99.90;;;;;;5057487;28;20113;-80
2024/01/14 09:03:54;;;;;;;0.10;0.10;;;3.90;99.90;;;;;;5070130;28;20125;-80
2024/01/14 09:06:22;;;;;;;0.10;0.10;;;3.80;99.90;;;;;;5069204;28;20117;-80
2024/01/14 09:08:49;;;;;;;0.10;0.10;;;3.80;99.90;;;;;;5058752;28;20102;-81
2024/01/14 09:11:17;;;;;;;0.20;0.20;;;4.00;99.90;;;;;;5069790;28;27028;-80
2024/01/14 09:13:45;;;;;;;0.15;0.15;;;4.00;99.90;;;;;;5021243;28;20121;-80
2024/01/14 09:16:13;;;;;;;0.20;0.20;;;4.30;99.90;;;;;;5076228;28;20212;-80
2024/01/14 09:18:40;;;;;;;0.10;0.10;;;4.60;99.90;;;;;;5069524;28;20129;-80
2024/01/14 09:21:07;;;;;;;0.20;0.20;;;4.80;99.90;;;;;;5051924;28;20121;-80
2024/01/14 09:23:34;;;;;;;0.20;0.20;;;5.10;99.90;;;;;;5052459;28;20126;-82
2024/01/14 09:26:03;;;;;;;0.20;0.20;;;5.60;99.90;;;;;;5067475;28;20116;-80
2024/01/14 09:28:32;;;;;;;0.17;0.17;;;5.80;99.90;;;;;;5052235;28;20119;-80
2024/01/14 09:30:59;;;;;;;0.10;0.10;;;5.60;99.90;;;;;;5068880;28;24192;-80
2024/01/14 09:33:27;;;;;;;0.20;0.20;;;5.80;99.90;;;;;;5074412;27;20117;-81
2024/01/14 09:35:55;;;;;;;0.20;0.20;;;6.00;99.90;;;;;;5082451;28;20670;-80
2024/01/14 09:38:23;;;;;;;0.20;0.20;;;5.90;99.90;;;;;;5038063;28;20117;-79
2024/01/14 09:41:14;;;;;;;0.20;0.20;;;5.40;99.90;;;;;;5035436;28;20562;-80
2024/01/14 09:43:48;;;;;;;0.20;0.20;;;5.20;99.90;;;;;;5021742;28;20117;-80
2024/01/14 09:46:16;;;;;;;0.10;0.10;;;5.20;99.90;;;;;;5068276;28;20128;-79
2024/01/14 09:48:46;;;;;;;0.10;0.10;;;5.20;99.90;;;;;;5051988;28;20113;-80
2024/01/14 09:51:19;;;;;;;0.10;0.10;;;5.30;99.90;;;;;;5041588;28;20121;-79
2024/01/14 09:53:46;;;;;;;0.10;0.10;;;5.10;99.90;;;;;;5035587;28;21456;-79
2024/01/14 09:56:15;;;;;;;0.10;0.10;;;5.10;99.90;;;;;;5068642;28;20125;-78
2024/01/14 09:58:44;;;;;;;0.10;0.10;;;4.90;99.90;;;;;;5052969;28;20992;-78
2024/01/14 10:01:20;;;;;;;0.20;0.20;;;4.60;99.90;;;;;;5024302;28;20203;-79
2024/01/14 10:03:49;;;;;;;0.10;0.10;;;4.70;99.90;;;;;;5034116;28;20116;-79
2024/01/14 10:06:16;;;;;;;0.10;0.10;;;4.80;99.90;;;;;;5053666;28;20114;-78
2024/01/14 10:08:43;;;;;;;0.10;0.10;;;4.60;99.90;;;;;;5060024;28;20106;-78
2024/01/14 10:11:11;;;;;;;0.10;0.10;;;4.50;99.90;;;;;;5046018;28;20118;-79
2024/01/14 10:13:39;;;;;;;0.20;0.20;;;4.70;99.90;;;;;;5071515;28;20112;-78
2024/01/14 10:16:07;;;;;;;0.20;0.20;;;4.70;99.90;;;;;;5070239;28;20120;-78
2024/01/14 10:18:57;;;;;;;0.10;0.10;;;5.00;99.90;;;;;;5069937;28;20204;-78
2024/01/14 10:21:26;;;;;;;0.20;0.20;;;5.20;99.90;;;;;;5055118;28;20122;-79
2024/01/14 10:23:56;;;;;;;0.20;0.20;;;5.70;99.90;;;;;;5052532;28;20175;-80
2024/01/14 10:26:23;;;;;;;0.20;0.20;;;6.10;99.90;;;;;;5052716;28;20121;-79
2024/01/14 10:28:50;;;;;;;0.20;0.20;;;6.70;99.90;;;;;;5050784;28;20119;-79
2024/01/14 10:31:17;;;;;;;0.10;0.10;;;7.30;99.90;;;;;;5084483;27;20115;-79
2024/01/14 10:33:45;;;;;;;0.10;0.10;;;7.70;99.90;;;;;;5043030;28;20612;-79
2024/01/14 10:36:13;;;;;;;0.20;0.20;;;6.90;99.90;;;;;;5053790;28;20129;-79
2024/01/14 10:38:40;;;;;;;0.20;0.20;;;6.40;99.90;;;;;;5045653;28;20116;-78
2024/01/14 10:41:07;;;;;;;0.20;0.20;;;6.60;99.90;;;;;;5068196;28;20624;-78
2024/01/14 10:43:36;;;;;;;0.20;0.20;;;6.40;99.90;;;;;;5072091;28;20127;-78
2024/01/14 10:46:05;;;;;;;0.20;0.20;;;6.10;99.90;;;;;;5054169;28;20132;-78
2024/01/14 10:48:38;;;;;;;0.20;0.20;;;5.70;99.90;;;;;;5052808;28;20109;-78
2024/01/14 10:51:09;;;;;;;0.20;0.20;;;5.70;99.90;;;;;;5051534;28;20115;-78
2024/01/14 10:53:55;;;;;;;0.13;0.13;;;5.40;99.90;;;;;;5036013;28;20116;-77
2024/01/14 10:56:31;;;;;;;0.20;0.20;;;5.40;99.90;;;;;;5049637;28;20178;-78
2024/01/14 10:59:01;;;;;;;0.20;0.20;;;5.40;99.90;;;;;;5084470;28;20641;-78
2024/01/14 11:01:33;;;;;;;0.20;0.20;;;5.40;99.90;;;;;;5068701;28;20470;-78
2024/01/14 11:04:01;;;;;;;0.20;0.20;;;5.50;99.90;;;;;;5081386;28;20116;-78
2024/01/14 11:06:30;;;;;;;0.20;0.20;;;5.50;99.90;;;;;;5052758;28;20195;-79
2024/01/14 11:08:57;;;;;;;0.10;0.10;;;5.60;99.90;;;;;;5082878;28;20621;-79
2024/01/14 11:11:35;;;;;;;0.10;0.10;;;5.40;99.90;;;;;;5067333;28;20619;-78
2024/01/14 11:14:14;;;;;;;0.20;0.20;;;5.70;99.90;;;;;;5081104;28;20893;-78
2024/01/14 11:17:03;;;;;;;0.20;0.20;;;5.80;99.90;;;;;;5084446;28;20126;-78
2024/01/14 11:19:35;;;;;;;0.20;0.20;;;5.80;99.90;;;;;;5081410;28;20119;-77
2024/01/14 11:22:12;;;;;;;0.20;0.20;;;6.00;99.90;;;;;;5072017;28;20652;-78
2024/01/14 11:24:47;;;;;;;0.20;0.20;;;6.20;99.90;;;;;;5069421;28;20139;-78
2024/01/14 11:27:14;;;;;;;0.20;0.20;;;6.20;99.90;;;;;;5070550;28;31923;-78
2024/01/14 11:29:45;;;;;;;0.20;0.20;;;6.30;99.90;;;;;;5066746;28;20115;-78
2024/01/14 11:32:13;;;;;;;0.10;0.10;;;6.10;99.90;;;;;;5047137;28;20116;-78
2024/01/14 11:34:49;;;;;;;0.20;0.20;;;6.00;99.90;;;;;;5057026;28;20127;-78
2024/01/14 11:37:29;;;;;;;0.20;0.20;;;5.90;99.90;;;;;;5097368;27;20166;-78
2024/01/14 11:40:06;;;;;;;0.15;0.15;;;5.50;99.90;;;;;;5054616;28;20112;-79
2024/01/14 11:42:49;;;;;;;0.20;0.20;;;5.70;99.90;;;;;;5077110;28;20111;-75
2024/01/14 11:45:22;;;;;;;0.20;0.20;;;5.70;99.90;;;;;;5053904;28;20113;-75
2024/01/14 11:47:52;;;;;;;0.20;0.20;;;5.70;99.90;;;;;;5069179;28;20207;-74
2024/01/14 11:50:20;;;;;;;0.20;0.20;;;5.30;99.90;;;;;;5082013;28;20123;-75
2024/01/14 11:52:49;;;;;;;0.10;0.10;;;5.40;99.90;;;;;;5055537;28;20309;-74
2024/01/14 11:55:23;;;;;;;0.20;0.20;;;5.50;99.90;;;;;;5067468;28;20117;-74
2024/01/14 11:57:51;;;;;;;0.20;0.20;;;5.40;99.90;;;;;;5058484;28;20170;-75
2024/01/14 12:00:24;;;;;;;0.10;0.10;;;5.60;99.90;;;;;;5053573;28;20122;-75
2024/01/14 12:03:11;;;;;;;0.13;0.13;;;5.90;99.90;;;;;;5057375;28;20594;-75
2024/01/14 12:05:40;;;;;;;0.20;0.20;;;5.70;99.90;;;;;;5084991;27;20143;-75
2024/01/14 12:08:08;;;;;;;0.20;0.20;;;5.50;99.90;;;;;;5069470;28;20124;-74
2024/01/14 12:10:36;;;;;;;0.20;0.20;;;5.40;99.90;;;;;;5053097;28;20117;-75
2024/01/14 12:13:06;;;;;;;0.13;0.13;;;5.30;99.90;;;;;;5077136;28;20199;-75
2024/01/14 12:15:34;;;;;;;0.10;0.10;;;5.50;99.90;;;;;;5037345;28;20127;-74
2024/01/14 12:18:04;;;;;;;0.20;0.20;;;5.40;99.90;;;;;;5051228;28;20115;-74
2024/01/14 12:20:31;;;;;;;0.17;0.17;;;5.30;99.90;;;;;;5056620;28;20123;-74
2024/01/14 12:23:02;;;;;;;0.20;0.20;;;5.40;99.90;;;;;;5084973;27;20120;-74
2024/01/14 12:25:29;;;;;;;0.20;0.20;;;5.70;99.90;;;;;;5077942;28;20572;-75
2024/01/14 12:28:34;;;;;;;0.20;0.20;;;5.80;99.90;;;;;;5068993;28;20147;-74
2024/01/14 12:31:04;;;;;;;0.20;0.20;;;6.00;99.90;;;;;;5065281;28;20149;-74
2024/01/14 12:33:33;;;;;;;0.20;0.20;;;6.20;99.90;;;;;;5073526;28;20590;-78
2024/01/14 17:45:28;;;;;;;0.00;0.00;;;20.60;76.90;;;;;;5068635;27;20520;-75
2024/01/14 17:47:57;;;;;;;0.00;0.00;;;20.90;77.40;;;;;;5007644;28;20115;-74
2024/01/14 17:50:25;;;;;;;0.00;0.00;;;21.60;75.70;;;;;;5034078;28;20115;-71
2024/01/14 17:53:42;;;;;;;0.00;0.00;;;22.20;75.20;;;;;;5044975;27;20466;-72
2024/01/14 17:56:11;;;;;;;0.00;0.00;;;22.80;73.00;;;;;;5032203;28;23640;-71
2024/01/14 17:58:40;;;;;;;0.00;0.00;;;23.20;72.70;;;;;;5036118;28;20106;-71
2024/01/14 18:01:09;;;;;;;0.00;0.00;;;23.50;72.30;;;;;;5033825;28;21206;-75
2024/01/14 18:03:39;;;;;;;0.00;0.00;;;23.60;72.00;;;;;;5041471;28;20189;-74
2024/01/14 18:06:09;;;;;;;0.00;0.00;;;23.70;72.00;;;;;;5033811;28;20120;-74
2024/01/14 18:08:37;;;;;;;0.00;0.00;;;23.80;71.30;;;;;;5021615;28;20996;-72
2024/01/14 18:11:06;;;;;;;0.00;0.00;;;23.80;71.90;;;;;;5041920;28;20497;-72
2024/01/14 18:13:33;;;;;;;0.00;0.00;;;23.80;71.90;;;;;;5029808;28;20164;-71
2024/01/14 18:16:01;;;;;;;0.00;0.00;;;23.80;72.20;;;;;;5041000;28;20505;-72